sensor_id;sensor_type;location;lat;lon;timestamp;temperature;humidity
51765;DHT22;37835;53.256;6.456;2022-09-27T00:02:01;10.20;99.90
51765;DHT22;37835;53.256;6.456;2022-09-27T00:04:27;10.20;99.90
51765;DHT22;37835;53.256;6.456;2022-09-27T00:06:52;10.20;99.90
51765;DHT22;37835;53.256;6.456;2022-09-27T00:09:18;10.20;99.90
51765;DHT22;37835;53.256;6.456;2022-09-27T00:11:44;10.20;99.90
51765;DHT22;37835;53.256;6.456;2022-09-27T00:14:13;10.20;99.90
51765;DHT22;37835;53.256;6.456;2022-09-27T00:16:41;10.20;99.90
51765;DHT22;37835;53.256;6.456;2022-09-27T00:19:14;10.20;99.90
51765;DHT22;37835;53.256;6.456;2022-09-27T00:21:41;10.20;99.90
51765;DHT22;37835;53.256;6.456;2022-09-27T00:24:15;10.20;99.90
51765;DHT22;37835;53.256;6.456;2022-09-27T00:26:40;10.20;99.90
51765;DHT22;37835;53.256;6.456;2022-09-27T00:29:06;10.20;99.90
51765;DHT22;37835;53.256;6.456;2022-09-27T00:31:32;10.20;99.90
51765;DHT22;37835;53.256;6.456;2022-09-27T00:34:00;9.40;99.90
51765;DHT22;37835;53.256;6.456;2022-09-27T00:36:27;10.20;99.90
51765;DHT22;37835;53.256;6.456;2022-09-27T00:38:53;10.10;99.90
51765;DHT22;37835;53.256;6.456;2022-09-27T00:41:24;10.10;99.90
51765;DHT22;37835;53.256;6.456;2022-09-27T00:43:53;10.10;99.90
51765;DHT22;37835;53.256;6.456;2022-09-27T00:46:38;10.00;99.90
51765;DHT22;37835;53.256;6.456;2022-09-27T00:49:08;9.90;99.90
51765;DHT22;37835;53.256;6.456;2022-09-27T00:51:38;9.90;99.90
51765;DHT22;37835;53.256;6.456;2022-09-27T00:54:06;9.80;99.90
51765;DHT22;37835;53.256;6.456;2022-09-27T00:56:34;9.80;99.90
51765;DHT22;37835;53.256;6.456;2022-09-27T00:59:16;9.80;99.90
51765;DHT22;37835;53.256;6.456;2022-09-27T01:01:43;9.80;99.90
51765;DHT22;37835;53.256;6.456;2022-09-27T01:04:11;9.70;99.90
51765;DHT22;37835;53.256;6.456;2022-09-27T01:06:37;9.70;99.90
51765;DHT22;37835;53.256;6.456;2022-09-27T01:09:07;9.70;99.90
51765;DHT22;37835;53.256;6.456;2022-09-27T01:17:16;9.70;99.90
51765;DHT22;37835;53.256;6.456;2022-09-27T01:20:05;9.70;99.90
51765;DHT22;37835;53.256;6.456;2022-09-27T01:22:41;9.80;99.90
51765;DHT22;37835;53.256;6.456;2022-09-27T01:28:40;9.80;99.90
51765;DHT22;37835;53.256;6.456;2022-09-27T01:36:38;9.90;99.90
51765;DHT22;37835;53.256;6.456;2022-09-27T01:44:34;9.90;99.90
51765;DHT22;37835;53.256;6.456;2022-09-27T01:47:12;9.90;99.90
51765;DHT22;37835;53.256;6.456;2022-09-27T01:49:44;9.90;99.90
51765;DHT22;37835;53.256;6.456;2022-09-27T01:52:15;9.90;99.90
51765;DHT22;37835;53.256;6.456;2022-09-27T01:54:50;9.90;99.90
51765;DHT22;37835;53.256;6.456;2022-09-27T01:57:21;9.80;99.90
51765;DHT22;37835;53.256;6.456;2022-09-27T01:59:55;9.80;99.90
51765;DHT22;37835;53.256;6.456;2022-09-27T02:02:24;9.80;99.90
51765;DHT22;37835;53.256;6.456;2022-09-27T02:04:56;9.80;99.90
51765;DHT22;37835;53.256;6.456;2022-09-27T02:07:27;9.80;99.90
51765;DHT22;37835;53.256;6.456;2022-09-27T02:10:02;9.80;99.90
51765;DHT22;37835;53.256;6.456;2022-09-27T02:12:40;9.80;99.90
51765;DHT22;37835;53.256;6.456;2022-09-27T02:15:13;9.80;99.90
51765;DHT22;37835;53.256;6.456;2022-09-27T02:18:00;9.80;99.90
51765;DHT22;37835;53.256;6.456;2022-09-27T02:20:34;9.70;99.90
51765;DHT22;37835;53.256;6.456;2022-09-27T02:25:56;9.70;99.90
51765;DHT22;37835;53.256;6.456;2022-09-27T02:28:33;9.60;99.90
51765;DHT22;37835;53.256;6.456;2022-09-27T02:31:01;9.60;99.90
51765;DHT22;37835;53.256;6.456;2022-09-27T02:33:31;9.60;99.90
51765;DHT22;37835;53.256;6.456;2022-09-27T02:35:59;9.60;99.90
51765;DHT22;37835;53.256;6.456;2022-09-27T02:38:25;9.50;99.90
51765;DHT22;37835;53.256;6.456;2022-09-27T02:40:51;9.50;99.90
51765;DHT22;37835;53.256;6.456;2022-09-27T02:43:19;9.50;99.90
51765;DHT22;37835;53.256;6.456;2022-09-27T02:46:07;9.50;99.90
51765;DHT22;37835;53.256;6.456;2022-09-27T02:51:28;9.50;99.90
51765;DHT22;37835;53.256;6.456;2022-09-27T02:54:10;9.50;99.90
51765;DHT22;37835;53.256;6.456;2022-09-27T02:56:43;9.50;99.90
51765;DHT22;37835;53.256;6.456;2022-09-27T02:59:34;9.50;99.90
51765;DHT22;37835;53.256;6.456;2022-09-27T03:02:22;9.50;99.90
51765;DHT22;37835;53.256;6.456;2022-09-27T03:05:10;9.50;99.90
51765;DHT22;37835;53.256;6.456;2022-09-27T03:07:37;9.50;99.90
51765;DHT22;37835;53.256;6.456;2022-09-27T03:10:04;9.40;99.90
51765;DHT22;37835;53.256;6.456;2022-09-27T03:12:30;9.40;99.90
51765;DHT22;37835;53.256;6.456;2022-09-27T03:14:58;9.40;99.90
51765;DHT22;37835;53.256;6.456;2022-09-27T03:17:24;9.40;99.90
51765;DHT22;37835;53.256;6.456;2022-09-27T03:19:50;9.40;99.90
51765;DHT22;37835;53.256;6.456;2022-09-27T03:22:16;9.40;99.90
51765;DHT22;37835;53.256;6.456;2022-09-27T03:24:42;9.40;99.90
51765;DHT22;37835;53.256;6.456;2022-09-27T03:27:08;9.40;99.90
51765;DHT22;37835;53.256;6.456;2022-09-27T03:29:35;9.20;99.90
51765;DHT22;37835;53.256;6.456;2022-09-27T03:32:01;9.30;99.90
51765;DHT22;37835;53.256;6.456;2022-09-27T03:34:26;9.30;99.90
51765;DHT22;37835;53.256;6.456;2022-09-27T03:36:52;9.30;99.90
51765;DHT22;37835;53.256;6.456;2022-09-27T03:39:18;9.30;99.90
51765;DHT22;37835;53.256;6.456;2022-09-27T03:41:43;9.30;99.90
51765;DHT22;37835;53.256;6.456;2022-09-27T03:44:09;9.30;99.90
51765;DHT22;37835;53.256;6.456;2022-09-27T03:46:34;9.30;99.90
51765;DHT22;37835;53.256;6.456;2022-09-27T03:49:00;9.30;99.90
51765;DHT22;37835;53.256;6.456;2022-09-27T03:51:25;9.30;99.90
51765;DHT22;37835;53.256;6.456;2022-09-27T03:53:52;9.30;99.90
51765;DHT22;37835;53.256;6.456;2022-09-27T03:56:18;9.30;99.90
51765;DHT22;37835;53.256;6.456;2022-09-27T03:58:44;9.30;99.90
51765;DHT22;37835;53.256;6.456;2022-09-27T04:01:10;9.30;99.90
51765;DHT22;37835;53.256;6.456;2022-09-27T04:03:35;9.30;99.90
51765;DHT22;37835;53.256;6.456;2022-09-27T04:06:02;9.30;99.90
51765;DHT22;37835;53.256;6.456;2022-09-27T04:08:28;9.30;99.90
51765;DHT22;37835;53.256;6.456;2022-09-27T04:10:55;9.30;99.90
51765;DHT22;37835;53.256;6.456;2022-09-27T04:13:21;9.30;99.90
51765;DHT22;37835;53.256;6.456;2022-09-27T04:15:47;9.40;99.90
51765;DHT22;37835;53.256;6.456;2022-09-27T04:18:13;9.30;99.90
51765;DHT22;37835;53.256;6.456;2022-09-27T04:20:38;9.40;99.90
51765;DHT22;37835;53.256;6.456;2022-09-27T04:23:04;9.30;99.90
51765;DHT22;37835;53.256;6.456;2022-09-27T04:25:30;9.40;99.90
51765;DHT22;37835;53.256;6.456;2022-09-27T04:27:57;9.40;99.90
51765;DHT22;37835;53.256;6.456;2022-09-27T04:30:23;9.30;99.90
51765;DHT22;37835;53.256;6.456;2022-09-27T04:32:50;9.30;99.90
51765;DHT22;37835;53.256;6.456;2022-09-27T04:35:17;9.30;99.90
51765;DHT22;37835;53.256;6.456;2022-09-27T04:38:01;9.40;99.90
51765;DHT22;37835;53.256;6.456;2022-09-27T04:40:27;9.30;99.90
51765;DHT22;37835;53.256;6.456;2022-09-27T04:42:52;9.30;99.90
51765;DHT22;37835;53.256;6.456;2022-09-27T04:45:18;9.30;99.90
51765;DHT22;37835;53.256;6.456;2022-09-27T04:47:47;9.30;99.90
51765;DHT22;37835;53.256;6.456;2022-09-27T04:50:14;9.30;99.90
51765;DHT22;37835;53.256;6.456;2022-09-27T04:52:40;9.30;99.90
51765;DHT22;37835;53.256;6.456;2022-09-27T04:55:10;9.30;99.90
51765;DHT22;37835;53.256;6.456;2022-09-27T04:57:35;9.30;99.90
51765;DHT22;37835;53.256;6.456;2022-09-27T05:00:03;9.30;99.90
51765;DHT22;37835;53.256;6.456;2022-09-27T05:02:29;9.30;99.90
51765;DHT22;37835;53.256;6.456;2022-09-27T05:04:55;9.30;99.90
51765;DHT22;37835;53.256;6.456;2022-09-27T05:07:25;9.30;99.90
51765;DHT22;37835;53.256;6.456;2022-09-27T05:09:51;9.30;99.90
51765;DHT22;37835;53.256;6.456;2022-09-27T05:12:17;9.30;99.90
51765;DHT22;37835;53.256;6.456;2022-09-27T05:14:43;9.30;99.90
51765;DHT22;37835;53.256;6.456;2022-09-27T05:17:09;9.30;99.90
51765;DHT22;37835;53.256;6.456;2022-09-27T05:19:35;9.30;99.90
51765;DHT22;37835;53.256;6.456;2022-09-27T05:22:04;9.30;99.90
51765;DHT22;37835;53.256;6.456;2022-09-27T05:24:30;9.30;99.90
51765;DHT22;37835;53.256;6.456;2022-09-27T05:27:00;9.30;99.90
51765;DHT22;37835;53.256;6.456;2022-09-27T05:29:27;9.30;99.90
51765;DHT22;37835;53.256;6.456;2022-09-27T05:31:53;9.30;99.90
51765;DHT22;37835;53.256;6.456;2022-09-27T05:34:19;9.30;99.90
51765;DHT22;37835;53.256;6.456;2022-09-27T05:36:48;9.30;99.90
51765;DHT22;37835;53.256;6.456;2022-09-27T05:39:14;9.30;99.90
51765;DHT22;37835;53.256;6.456;2022-09-27T05:41:41;9.30;99.90
51765;DHT22;37835;53.256;6.456;2022-09-27T05:44:07;9.30;99.90
51765;DHT22;37835;53.256;6.456;2022-09-27T05:46:33;9.30;99.90
51765;DHT22;37835;53.256;6.456;2022-09-27T05:48:58;9.30;99.90
51765;DHT22;37835;53.256;6.456;2022-09-27T05:51:24;9.30;99.90
51765;DHT22;37835;53.256;6.456;2022-09-27T05:53:50;9.30;99.90
51765;DHT22;37835;53.256;6.456;2022-09-27T05:56:15;9.40;99.90
51765;DHT22;37835;53.256;6.456;2022-09-27T05:58:41;9.40;99.90
51765;DHT22;37835;53.256;6.456;2022-09-27T06:01:08;9.40;99.90
51765;DHT22;37835;53.256;6.456;2022-09-27T06:03:34;9.40;99.90
51765;DHT22;37835;53.256;6.456;2022-09-27T06:06:03;9.40;99.90
51765;DHT22;37835;53.256;6.456;2022-09-27T06:08:33;9.40;99.90
51765;DHT22;37835;53.256;6.456;2022-09-27T06:11:04;9.40;99.90
51765;DHT22;37835;53.256;6.456;2022-09-27T06:13:30;9.40;99.90
51765;DHT22;37835;53.256;6.456;2022-09-27T06:15:57;9.40;99.90
51765;DHT22;37835;53.256;6.456;2022-09-27T06:18:23;9.40;99.90
51765;DHT22;37835;53.256;6.456;2022-09-27T06:20:49;9.40;99.90
51765;DHT22;37835;53.256;6.456;2022-09-27T06:23:18;9.40;99.90
51765;DHT22;37835;53.256;6.456;2022-09-27T06:25:44;9.40;99.90
51765;DHT22;37835;53.256;6.456;2022-09-27T06:28:11;9.40;99.90
51765;DHT22;37835;53.256;6.456;2022-09-27T06:30:46;9.40;99.90
51765;DHT22;37835;53.256;6.456;2022-09-27T06:33:14;9.40;99.90
51765;DHT22;37835;53.256;6.456;2022-09-27T06:35:41;9.40;99.90
51765;DHT22;37835;53.256;6.456;2022-09-27T06:38:09;9.40;99.90
51765;DHT22;37835;53.256;6.456;2022-09-27T06:40:35;9.40;99.90
51765;DHT22;37835;53.256;6.456;2022-09-27T06:43:08;9.40;99.90
51765;DHT22;37835;53.256;6.456;2022-09-27T06:45:35;9.40;99.90
51765;DHT22;37835;53.256;6.456;2022-09-27T06:48:02;9.40;99.90
51765;DHT22;37835;53.256;6.456;2022-09-27T06:50:29;9.40;99.90
51765;DHT22;37835;53.256;6.456;2022-09-27T06:52:55;9.40;99.90
51765;DHT22;37835;53.256;6.456;2022-09-27T06:55:21;9.40;99.90
51765;DHT22;37835;53.256;6.456;2022-09-27T06:57:47;9.50;99.90
51765;DHT22;37835;53.256;6.456;2022-09-27T07:00:31;9.40;99.90
51765;DHT22;37835;53.256;6.456;2022-09-27T07:02:57;9.50;99.90
51765;DHT22;37835;53.256;6.456;2022-09-27T07:05:29;9.50;99.90
51765;DHT22;37835;53.256;6.456;2022-09-27T07:07:56;9.50;99.90
51765;DHT22;37835;53.256;6.456;2022-09-27T07:10:27;9.50;99.90
51765;DHT22;37835;53.256;6.456;2022-09-27T07:12:53;9.50;99.90
51765;DHT22;37835;53.256;6.456;2022-09-27T07:15:20;9.50;99.90
51765;DHT22;37835;53.256;6.456;2022-09-27T07:17:47;9.50;99.90
51765;DHT22;37835;53.256;6.456;2022-09-27T07:20:13;9.50;99.90
51765;DHT22;37835;53.256;6.456;2022-09-27T07:22:42;10.50;99.90
51765;DHT22;37835;53.256;6.456;2022-09-27T07:25:10;9.10;99.90
51765;DHT22;37835;53.256;6.456;2022-09-27T07:27:36;9.60;99.90
51765;DHT22;37835;53.256;6.456;2022-09-27T07:30:01;9.70;99.90
51765;DHT22;37835;53.256;6.456;2022-09-27T07:32:27;9.70;99.90
51765;DHT22;37835;53.256;6.456;2022-09-27T07:34:52;9.80;99.90
51765;DHT22;37835;53.256;6.456;2022-09-27T07:37:18;10.00;99.90
51765;DHT22;37835;53.256;6.456;2022-09-27T07:39:44;9.80;99.90
51765;DHT22;37835;53.256;6.456;2022-09-27T07:42:09;9.90;99.90
51765;DHT22;37835;53.256;6.456;2022-09-27T07:44:35;9.80;99.90
51765;DHT22;37835;53.256;6.456;2022-09-27T07:47:00;9.80;99.90
51765;DHT22;37835;53.256;6.456;2022-09-27T07:49:26;9.80;99.90
51765;DHT22;37835;53.256;6.456;2022-09-27T07:51:52;9.80;99.90
51765;DHT22;37835;53.256;6.456;2022-09-27T07:54:17;9.80;99.90
51765;DHT22;37835;53.256;6.456;2022-09-27T07:56:46;9.80;99.90
51765;DHT22;37835;53.256;6.456;2022-09-27T07:59:11;9.70;99.90
51765;DHT22;37835;53.256;6.456;2022-09-27T08:01:37;9.70;99.90
51765;DHT22;37835;53.256;6.456;2022-09-27T08:04:03;9.70;99.90
51765;DHT22;37835;53.256;6.456;2022-09-27T08:06:30;9.80;99.90
51765;DHT22;37835;53.256;6.456;2022-09-27T08:08:55;9.80;99.90
51765;DHT22;37835;53.256;6.456;2022-09-27T08:11:23;9.80;99.90
51765;DHT22;37835;53.256;6.456;2022-09-27T08:13:48;9.80;99.90
51765;DHT22;37835;53.256;6.456;2022-09-27T08:16:17;9.80;99.90
51765;DHT22;37835;53.256;6.456;2022-09-27T08:18:42;9.90;99.90
51765;DHT22;37835;53.256;6.456;2022-09-27T08:21:08;9.90;99.90
51765;DHT22;37835;53.256;6.456;2022-09-27T08:23:34;10.00;99.90
51765;DHT22;37835;53.256;6.456;2022-09-27T08:26:01;10.00;99.90
51765;DHT22;37835;53.256;6.456;2022-09-27T08:28:26;10.10;99.90
51765;DHT22;37835;53.256;6.456;2022-09-27T08:30:52;10.20;99.90
51765;DHT22;37835;53.256;6.456;2022-09-27T08:33:18;10.20;99.90
51765;DHT22;37835;53.256;6.456;2022-09-27T08:35:43;10.20;99.90
51765;DHT22;37835;53.256;6.456;2022-09-27T08:38:10;10.30;99.90
51765;DHT22;37835;53.256;6.456;2022-09-27T08:40:56;10.30;99.90
51765;DHT22;37835;53.256;6.456;2022-09-27T08:49:26;10.40;99.90
51765;DHT22;37835;53.256;6.456;2022-09-27T08:51:54;10.40;99.90
51765;DHT22;37835;53.256;6.456;2022-09-27T08:54:25;10.40;99.90
51765;DHT22;37835;53.256;6.456;2022-09-27T08:56:52;10.50;99.90
51765;DHT22;37835;53.256;6.456;2022-09-27T08:59:22;10.50;99.90
51765;DHT22;37835;53.256;6.456;2022-09-27T09:01:51;11.30;99.90
51765;DHT22;37835;53.256;6.456;2022-09-27T09:04:32;10.50;99.90
51765;DHT22;37835;53.256;6.456;2022-09-27T09:07:07;10.60;99.90
51765;DHT22;37835;53.256;6.456;2022-09-27T09:09:56;10.60;99.90
51765;DHT22;37835;53.256;6.456;2022-09-27T09:12:48;10.70;99.90
51765;DHT22;37835;53.256;6.456;2022-09-27T09:17:59;10.70;99.90
51765;DHT22;37835;53.256;6.456;2022-09-27T09:23:20;10.70;99.90
51765;DHT22;37835;53.256;6.456;2022-09-27T09:26:04;10.70;99.90
51765;DHT22;37835;53.256;6.456;2022-09-27T09:28:55;11.10;99.90
51765;DHT22;37835;53.256;6.456;2022-09-27T09:34:24;10.60;99.90
51765;DHT22;37835;53.256;6.456;2022-09-27T09:37:10;10.50;99.90
51765;DHT22;37835;53.256;6.456;2022-09-27T09:39:44;10.50;99.90
51765;DHT22;37835;53.256;6.456;2022-09-27T09:42:32;10.50;99.90
51765;DHT22;37835;53.256;6.456;2022-09-27T09:45:19;10.40;99.90
51765;DHT22;37835;53.256;6.456;2022-09-27T09:47:56;10.40;99.90
51765;DHT22;37835;53.256;6.456;2022-09-27T09:50:33;10.30;99.90
51765;DHT22;37835;53.256;6.456;2022-09-27T09:53:15;10.30;99.90
51765;DHT22;37835;53.256;6.456;2022-09-27T09:55:46;10.40;99.90
51765;DHT22;37835;53.256;6.456;2022-09-27T10:00:47;10.30;99.90
51765;DHT22;37835;53.256;6.456;2022-09-27T10:03:14;10.40;99.90
51765;DHT22;37835;53.256;6.456;2022-09-27T10:05:42;10.40;99.90
51765;DHT22;37835;53.256;6.456;2022-09-27T10:08:14;10.40;99.90
51765;DHT22;37835;53.256;6.456;2022-09-27T10:10:41;10.50;99.90
51765;DHT22;37835;53.256;6.456;2022-09-27T10:13:15;10.50;99.90
51765;DHT22;37835;53.256;6.456;2022-09-27T10:15:41;10.60;99.90
51765;DHT22;37835;53.256;6.456;2022-09-27T10:18:12;10.30;99.90
51765;DHT22;37835;53.256;6.456;2022-09-27T10:20:49;10.70;99.90
51765;DHT22;37835;53.256;6.456;2022-09-27T10:23:20;10.80;99.90
51765;DHT22;37835;53.256;6.456;2022-09-27T10:25:56;10.90;99.90
51765;DHT22;37835;53.256;6.456;2022-09-27T10:28:36;10.90;99.90
51765;DHT22;37835;53.256;6.456;2022-09-27T10:31:07;11.00;99.90
51765;DHT22;37835;53.256;6.456;2022-09-27T10:33:37;11.00;99.90
51765;DHT22;37835;53.256;6.456;2022-09-27T10:36:06;11.10;99.90
51765;DHT22;37835;53.256;6.456;2022-09-27T10:38:52;11.10;99.90
51765;DHT22;37835;53.256;6.456;2022-09-27T10:41:31;11.10;99.90
51765;DHT22;37835;53.256;6.456;2022-09-27T10:43:57;11.10;99.90
51765;DHT22;37835;53.256;6.456;2022-09-27T10:46:44;11.00;99.90
51765;DHT22;37835;53.256;6.456;2022-09-27T10:49:31;11.00;99.90
51765;DHT22;37835;53.256;6.456;2022-09-27T10:52:00;10.90;99.90
51765;DHT22;37835;53.256;6.456;2022-09-27T10:54:29;10.90;99.90
51765;DHT22;37835;53.256;6.456;2022-09-27T10:57:02;10.90;99.90
51765;DHT22;37835;53.256;6.456;2022-09-27T10:59:32;10.80;99.90
51765;DHT22;37835;53.256;6.456;2022-09-27T11:01:59;10.80;99.90
51765;DHT22;37835;53.256;6.456;2022-09-27T11:04:32;10.80;99.90
51765;DHT22;37835;53.256;6.456;2022-09-27T11:07:14;10.70;99.90
51765;DHT22;37835;53.256;6.456;2022-09-27T11:09:57;10.70;99.90
51765;DHT22;37835;53.256;6.456;2022-09-27T11:12:29;10.70;99.90
51765;DHT22;37835;53.256;6.456;2022-09-27T11:15:13;10.70;99.90
51765;DHT22;37835;53.256;6.456;2022-09-27T11:17:55;10.60;99.90
51765;DHT22;37835;53.256;6.456;2022-09-27T11:21:00;10.60;99.90
51765;DHT22;37835;53.256;6.456;2022-09-27T11:26:40;10.60;99.90
51765;DHT22;37835;53.256;6.456;2022-09-27T11:29:31;10.60;99.90
51765;DHT22;37835;53.256;6.456;2022-09-27T11:35:04;10.70;99.90
51765;DHT22;37835;53.256;6.456;2022-09-27T11:37:44;10.70;99.90
51765;DHT22;37835;53.256;6.456;2022-09-27T11:48:11;10.90;99.90
51765;DHT22;37835;53.256;6.456;2022-09-27T11:53:24;10.70;99.90
51765;DHT22;37835;53.256;6.456;2022-09-27T12:01:16;10.60;99.90
51765;DHT22;37835;53.256;6.456;2022-09-27T12:09:32;10.70;99.90
51765;DHT22;37835;53.256;6.456;2022-09-27T12:12:04;10.70;99.90
51765;DHT22;37835;53.256;6.456;2022-09-27T12:14:48;10.80;99.90
51765;DHT22;37835;53.256;6.456;2022-09-27T12:17:23;10.90;99.90
51765;DHT22;37835;53.256;6.456;2022-09-27T12:19:53;10.90;99.90
51765;DHT22;37835;53.256;6.456;2022-09-27T12:22:56;11.00;99.90
51765;DHT22;37835;53.256;6.456;2022-09-27T12:25:25;11.00;99.90
51765;DHT22;37835;53.256;6.456;2022-09-27T12:28:04;11.00;99.90
51765;DHT22;37835;53.256;6.456;2022-09-27T12:30:33;11.10;99.90
51765;DHT22;37835;53.256;6.456;2022-09-27T12:35:53;11.20;99.90
51765;DHT22;37835;53.256;6.456;2022-09-27T12:38:34;11.20;99.90
51765;DHT22;37835;53.256;6.456;2022-09-27T12:41:04;11.20;99.90
51765;DHT22;37835;53.256;6.456;2022-09-27T12:43:32;11.30;99.90
51765;DHT22;37835;53.256;6.456;2022-09-27T12:46:07;11.30;99.90
51765;DHT22;37835;53.256;6.456;2022-09-27T12:49:14;11.40;99.90
51765;DHT22;37835;53.256;6.456;2022-09-27T12:51:47;11.50;99.90
51765;DHT22;37835;53.256;6.456;2022-09-27T13:00:09;11.50;99.90
51765;DHT22;37835;53.256;6.456;2022-09-27T13:11:18;11.50;99.90
51765;DHT22;37835;53.256;6.456;2022-09-27T13:13:48;11.60;99.90
51765;DHT22;37835;53.256;6.456;2022-09-27T13:16:14;11.50;99.90
51765;DHT22;37835;53.256;6.456;2022-09-27T13:18:56;11.50;99.90
51765;DHT22;37835;53.256;6.456;2022-09-27T13:32:34;11.20;99.90
51765;DHT22;37835;53.256;6.456;2022-09-27T13:35:21;11.10;99.90
51765;DHT22;37835;53.256;6.456;2022-09-27T13:37:57;11.00;99.90
51765;DHT22;37835;53.256;6.456;2022-09-27T13:40:34;11.00;99.90
51765;DHT22;37835;53.256;6.456;2022-09-27T13:45:54;10.90;99.90
51765;DHT22;37835;53.256;6.456;2022-09-27T13:51:56;10.90;99.90
51765;DHT22;37835;53.256;6.456;2022-09-27T13:53:57;10.90;99.90
51765;DHT22;37835;53.256;6.456;2022-09-27T13:59:03;11.00;99.90
51765;DHT22;37835;53.256;6.456;2022-09-27T14:01:38;11.00;99.90
51765;DHT22;37835;53.256;6.456;2022-09-27T14:04:17;11.10;99.90
51765;DHT22;37835;53.256;6.456;2022-09-27T14:06:48;11.10;99.90
51765;DHT22;37835;53.256;6.456;2022-09-27T14:09:25;11.00;99.90
51765;DHT22;37835;53.256;6.456;2022-09-27T14:11:55;11.00;99.90
51765;DHT22;37835;53.256;6.456;2022-09-27T14:14:25;11.00;99.90
51765;DHT22;37835;53.256;6.456;2022-09-27T14:16:51;10.90;99.90
51765;DHT22;37835;53.256;6.456;2022-09-27T14:19:21;10.80;99.90
51765;DHT22;37835;53.256;6.456;2022-09-27T14:21:47;10.80;99.90
51765;DHT22;37835;53.256;6.456;2022-09-27T14:26:49;10.70;99.90
51765;DHT22;37835;53.256;6.456;2022-09-27T14:29:21;10.70;99.90
51765;DHT22;37835;53.256;6.456;2022-09-27T14:32:01;10.60;99.90
51765;DHT22;37835;53.256;6.456;2022-09-27T14:34:27;10.70;99.90
51765;DHT22;37835;53.256;6.456;2022-09-27T14:36:53;10.60;99.90
51765;DHT22;37835;53.256;6.456;2022-09-27T14:39:37;10.60;99.90
51765;DHT22;37835;53.256;6.456;2022-09-27T14:42:15;10.60;99.90
51765;DHT22;37835;53.256;6.456;2022-09-27T14:44:43;10.60;99.90
51765;DHT22;37835;53.256;6.456;2022-09-27T14:49:51;10.70;99.90
51765;DHT22;37835;53.256;6.456;2022-09-27T14:52:26;10.70;99.90
51765;DHT22;37835;53.256;6.456;2022-09-27T14:54:56;10.70;99.90
51765;DHT22;37835;53.256;6.456;2022-09-27T14:57:22;10.70;99.90
51765;DHT22;37835;53.256;6.456;2022-09-27T14:59:48;10.70;99.90
51765;DHT22;37835;53.256;6.456;2022-09-27T15:02:18;10.70;99.90
51765;DHT22;37835;53.256;6.456;2022-09-27T15:04:47;10.70;99.90
51765;DHT22;37835;53.256;6.456;2022-09-27T15:07:13;10.70;99.90
51765;DHT22;37835;53.256;6.456;2022-09-27T15:09:42;10.70;99.90
51765;DHT22;37835;53.256;6.456;2022-09-27T15:12:09;10.70;99.90
51765;DHT22;37835;53.256;6.456;2022-09-27T15:14:35;10.80;99.90
51765;DHT22;37835;53.256;6.456;2022-09-27T15:17:05;10.80;99.90
51765;DHT22;37835;53.256;6.456;2022-09-27T15:19:32;10.70;99.90
51765;DHT22;37835;53.256;6.456;2022-09-27T15:22:31;10.80;99.90
51765;DHT22;37835;53.256;6.456;2022-09-27T15:25:05;10.80;99.90
51765;DHT22;37835;53.256;6.456;2022-09-27T15:27:31;10.70;99.90
51765;DHT22;37835;53.256;6.456;2022-09-27T15:29:57;10.70;99.90
51765;DHT22;37835;53.256;6.456;2022-09-27T15:32:25;10.70;99.90
51765;DHT22;37835;53.256;6.456;2022-09-27T15:34:52;10.70;99.90
51765;DHT22;37835;53.256;6.456;2022-09-27T15:37:35;10.70;99.90
51765;DHT22;37835;53.256;6.456;2022-09-27T15:43:21;10.70;99.90
51765;DHT22;37835;53.256;6.456;2022-09-27T15:45:51;10.70;99.90
51765;DHT22;37835;53.256;6.456;2022-09-27T15:48:18;10.70;99.90
51765;DHT22;37835;53.256;6.456;2022-09-27T15:50:45;10.70;99.90
51765;DHT22;37835;53.256;6.456;2022-09-27T15:53:12;10.70;99.90
51765;DHT22;37835;53.256;6.456;2022-09-27T15:55:57;10.70;99.90
51765;DHT22;37835;53.256;6.456;2022-09-27T15:58:24;10.70;99.90
51765;DHT22;37835;53.256;6.456;2022-09-27T16:00:55;10.70;99.90
51765;DHT22;37835;53.256;6.456;2022-09-27T16:03:22;10.70;99.90
51765;DHT22;37835;53.256;6.456;2022-09-27T16:05:48;10.70;99.90
51765;DHT22;37835;53.256;6.456;2022-09-27T16:08:14;10.70;99.90
51765;DHT22;37835;53.256;6.456;2022-09-27T16:10:50;10.70;99.90
51765;DHT22;37835;53.256;6.456;2022-09-27T16:13:17;10.70;99.90
51765;DHT22;37835;53.256;6.456;2022-09-27T16:15:43;10.60;99.90
51765;DHT22;37835;53.256;6.456;2022-09-27T16:18:10;10.70;99.90
51765;DHT22;37835;53.256;6.456;2022-09-27T16:20:35;10.60;99.90
51765;DHT22;37835;53.256;6.456;2022-09-27T16:23:01;10.60;99.90
51765;DHT22;37835;53.256;6.456;2022-09-27T16:25:27;10.60;99.90
51765;DHT22;37835;53.256;6.456;2022-09-27T16:27:55;10.60;99.90
51765;DHT22;37835;53.256;6.456;2022-09-27T16:30:22;10.60;99.90
51765;DHT22;37835;53.256;6.456;2022-09-27T16:32:48;10.60;99.90
51765;DHT22;37835;53.256;6.456;2022-09-27T16:35:15;10.70;99.90
51765;DHT22;37835;53.256;6.456;2022-09-27T16:37:41;10.60;99.90
51765;DHT22;37835;53.256;6.456;2022-09-27T16:40:09;10.60;99.90
51765;DHT22;37835;53.256;6.456;2022-09-27T16:42:35;10.60;99.90
51765;DHT22;37835;53.256;6.456;2022-09-27T16:45:02;10.60;99.90
51765;DHT22;37835;53.256;6.456;2022-09-27T16:47:29;10.60;99.90
51765;DHT22;37835;53.256;6.456;2022-09-27T16:49:54;10.60;99.90
51765;DHT22;37835;53.256;6.456;2022-09-27T16:52:39;10.50;99.90
51765;DHT22;37835;53.256;6.456;2022-09-27T16:55:07;10.40;99.90
51765;DHT22;37835;53.256;6.456;2022-09-27T16:57:33;10.30;99.90
51765;DHT22;37835;53.256;6.456;2022-09-27T17:00:03;10.20;99.90
51765;DHT22;37835;53.256;6.456;2022-09-27T17:02:29;10.10;99.90
51765;DHT22;37835;53.256;6.456;2022-09-27T17:04:55;10.00;99.90
51765;DHT22;37835;53.256;6.456;2022-09-27T17:07:20;9.90;99.90
51765;DHT22;37835;53.256;6.456;2022-09-27T17:09:46;9.80;99.90
51765;DHT22;37835;53.256;6.456;2022-09-27T17:12:13;9.80;99.90
51765;DHT22;37835;53.256;6.456;2022-09-27T17:14:39;9.70;99.90
51765;DHT22;37835;53.256;6.456;2022-09-27T17:17:04;9.70;99.90
51765;DHT22;37835;53.256;6.456;2022-09-27T17:19:30;9.60;99.90
51765;DHT22;37835;53.256;6.456;2022-09-27T17:21:57;9.60;99.90
51765;DHT22;37835;53.256;6.456;2022-09-27T17:24:23;9.50;99.90
51765;DHT22;37835;53.256;6.456;2022-09-27T17:26:48;9.50;99.90
51765;DHT22;37835;53.256;6.456;2022-09-27T17:29:14;9.50;99.90
51765;DHT22;37835;53.256;6.456;2022-09-27T17:31:41;9.40;99.90
51765;DHT22;37835;53.256;6.456;2022-09-27T17:34:08;9.30;99.90
51765;DHT22;37835;53.256;6.456;2022-09-27T17:36:39;9.20;99.90
51765;DHT22;37835;53.256;6.456;2022-09-27T17:39:09;9.20;99.90
51765;DHT22;37835;53.256;6.456;2022-09-27T17:41:35;9.20;99.90
51765;DHT22;37835;53.256;6.456;2022-09-27T17:44:03;9.20;99.90
51765;DHT22;37835;53.256;6.456;2022-09-27T17:46:31;9.10;99.90
51765;DHT22;37835;53.256;6.456;2022-09-27T17:48:57;9.10;99.90
51765;DHT22;37835;53.256;6.456;2022-09-27T17:51:45;9.00;99.90
51765;DHT22;37835;53.256;6.456;2022-09-27T17:54:11;9.00;99.90